Time;durP1;ratioP1;P1;durP2;ratioP2;P2;SDS_P1;SDS_P2;PMS_P1;PMS_P2;Temp;Humidity;BMP_temperature;BMP_pressure;BME280_temperature;BME280_humidity;BME280_pressure;Samples;Min_cycle;Max_cycle;Signal;HPM_P1;HPM_P2
2023/07/24 00:02:06;;;;;;;7.20;6.60;;;;;;;19.51;100.00;99468.91;5016428;28;20189;-76
2023/07/24 00:04:32;;;;;;;7.03;6.43;;;;;;;19.50;100.00;99462.78;5017112;28;20182;-77
2023/07/24 00:06:57;;;;;;;6.90;6.30;;;;;;;19.49;100.00;99468.97;5024043;28;20182;-77
2023/07/24 00:09:23;;;;;;;6.60;6.07;;;;;;;19.51;100.00;99458.41;5020802;28;20709;-77
2023/07/24 00:11:48;;;;;;;6.87;6.30;;;;;;;19.49;100.00;99452.41;5014708;28;20184;-77
2023/07/24 00:14:15;;;;;;;8.37;7.57;;;;;;;19.45;100.00;99456.97;5021997;28;20191;-77
2023/07/24 00:16:40;;;;;;;6.80;6.20;;;;;;;19.47;100.00;99457.72;5018037;28;20205;-77
2023/07/24 00:19:06;;;;;;;7.10;6.50;;;;;;;19.48;100.00;99453.34;5016051;28;20213;-77
2023/07/24 00:21:31;;;;;;;8.20;6.70;;;;;;;19.50;100.00;99460.16;5015232;28;20189;-75
2023/07/24 00:23:56;;;;;;;7.57;6.87;;;;;;;19.52;100.00;99456.63;5020540;28;20232;-76
2023/07/24 00:26:22;;;;;;;7.93;7.23;;;;;;;19.53;100.00;99453.88;5022798;28;20300;-76
2023/07/24 00:28:47;;;;;;;7.20;6.60;;;;;;;19.54;100.00;99465.25;5022638;28;20318;-77
2023/07/24 00:31:12;;;;;;;8.40;7.67;;;;;;;19.54;100.00;99454.75;5017933;28;20209;-77
2023/07/24 00:33:38;;;;;;;7.97;7.17;;;;;;;19.52;100.00;99448.75;5019706;28;20968;-76
2023/07/24 00:36:03;;;;;;;7.90;7.10;;;;;;;19.49;100.00;99449.78;5023360;28;20215;-77
2023/07/24 00:38:29;;;;;;;6.80;6.20;;;;;;;19.43;100.00;99442.25;5020813;28;20245;-78
2023/07/24 00:40:54;;;;;;;9.10;8.27;;;;;;;19.39;100.00;99432.88;5017225;28;20740;-76
2023/07/24 00:43:19;;;;;;;9.17;8.00;;;;;;;19.34;100.00;99439.25;5020647;28;20197;-77
2023/07/24 00:45:46;;;;;;;7.30;6.60;;;;;;;19.34;100.00;99441.03;5016667;28;20192;-77
2023/07/24 00:48:12;;;;;;;6.90;6.30;;;;;;;19.33;100.00;99434.09;5017929;28;20192;-77
2023/07/24 00:50:38;;;;;;;7.83;7.13;;;;;;;19.29;100.00;99427.31;5016771;28;20558;-77
2023/07/24 00:53:04;;;;;;;8.27;7.47;;;;;;;19.24;100.00;99430.22;5017623;28;20274;-77
2023/07/24 00:55:30;;;;;;;7.80;7.10;;;;;;;19.21;100.00;99430.41;5019244;28;20187;-77
2023/07/24 00:57:58;;;;;;;8.13;7.33;;;;;;;19.18;100.00;99420.94;5014803;28;20207;-77
2023/07/24 01:00:23;;;;;;;7.60;6.90;;;;;;;19.15;100.00;99415.03;5016350;28;20224;-76
2023/07/24 01:02:49;;;;;;;8.23;7.47;;;;;;;19.12;100.00;99409.97;5022598;28;20179;-77
2023/07/24 01:05:16;;;;;;;7.60;7.00;;;;;;;19.13;100.00;99411.66;5022093;28;20183;-77
2023/07/24 01:07:41;;;;;;;6.77;6.17;;;;;;;19.12;100.00;99410.81;5020584;28;20175;-76
2023/07/24 01:10:07;;;;;;;7.20;6.60;;;;;;;19.12;100.00;99405.59;5016296;28;20710;-77
2023/07/24 01:12:44;;;;;;;7.10;6.50;;;;;;;19.14;100.00;99408.09;5017064;28;20177;-77
2023/07/24 01:15:12;;;;;;;6.67;5.93;;;;;;;19.12;100.00;99405.59;5016532;28;20981;-77
2023/07/24 01:17:42;;;;;;;7.07;6.47;;;;;;;19.12;100.00;99420.47;5020048;28;20220;-76
2023/07/24 01:20:11;;;;;;;7.33;6.63;;;;;;;19.09;100.00;99407.50;5020413;28;20216;-77
2023/07/24 01:22:48;;;;;;;7.07;6.40;;;;;;;19.05;100.00;99409.47;5014516;28;20195;-77
2023/07/24 01:25:35;;;;;;;7.00;6.40;;;;;;;18.98;100.00;99411.63;5016058;28;20192;-77
2023/07/24 01:28:00;;;;;;;6.57;6.00;;;;;;;18.93;100.00;99408.38;5011973;28;20194;-77
2023/07/24 01:30:26;;;;;;;6.47;5.97;;;;;;;18.89;100.00;99414.75;5014929;28;20739;-78
2023/07/24 01:32:51;;;;;;;6.93;6.33;;;;;;;18.88;100.00;99420.94;5014976;28;20199;-78
2023/07/24 01:35:16;;;;;;;7.07;6.47;;;;;;;18.87;100.00;99414.81;5018858;28;20188;-77
2023/07/24 01:37:43;;;;;;;6.97;6.30;;;;;;;18.89;100.00;99410.34;5015614;28;20226;-76
2023/07/24 01:40:10;;;;;;;7.97;7.27;;;;;;;18.87;100.00;99406.97;5018993;28;20199;-77
2023/07/24 01:42:36;;;;;;;8.00;7.30;;;;;;;18.84;100.00;99417.63;5021828;28;20220;-77
2023/07/24 01:45:03;;;;;;;7.57;6.87;;;;;;;18.78;100.00;99417.97;5016556;28;20193;-78
2023/07/24 01:47:29;;;;;;;8.07;7.27;;;;;;;18.70;100.00;99413.19;5018052;28;20301;-77
2023/07/24 01:49:55;;;;;;;9.37;8.37;;;;;;;18.67;100.00;99417.75;5018777;28;20207;-77
2023/07/24 01:52:20;;;;;;;8.60;7.80;;;;;;;18.58;100.00;99419.94;5016832;28;20188;-77
2023/07/24 01:54:46;;;;;;;8.50;7.80;;;;;;;18.53;100.00;99419.34;5015093;28;20222;-76
2023/07/24 01:57:11;;;;;;;8.20;7.50;;;;;;;18.50;100.00;99413.44;5019361;28;20318;-76
2023/07/24 01:59:36;;;;;;;7.67;6.97;;;;;;;18.46;100.00;99412.78;5023102;28;20329;-77
2023/07/24 02:02:02;;;;;;;8.10;7.30;;;;;;;18.43;100.00;99405.09;5012662;28;20187;-76
2023/07/24 02:04:27;;;;;;;8.10;7.37;;;;;;;18.40;100.00;99400.88;5024070;28;20179;-77
2023/07/24 02:06:52;;;;;;;8.43;7.73;;;;;;;18.38;100.00;99392.25;5021594;28;20206;-77
2023/07/24 02:09:18;;;;;;;8.17;7.47;;;;;;;18.38;100.00;99396.63;5021317;28;20219;-76
2023/07/24 02:11:43;;;;;;;8.87;7.97;;;;;;;18.36;100.00;99386.25;5023300;28;20180;-77
2023/07/24 02:14:08;;;;;;;9.07;8.17;;;;;;;18.36;100.00;99385.44;5022414;28;20264;-77
2023/07/24 02:16:35;;;;;;;8.50;7.80;;;;;;;18.37;100.00;99393.19;5023326;28;20212;-77
2023/07/24 02:19:00;;;;;;;9.10;8.20;;;;;;;18.38;100.00;99387.00;5028589;28;20219;-77
2023/07/24 02:21:25;;;;;;;9.63;8.73;;;;;;;18.33;100.00;99385.59;5024193;28;20222;-76
2023/07/24 02:23:51;;;;;;;9.13;8.33;;;;;;;18.30;100.00;99381.38;5025037;28;20183;-76
2023/07/24 02:26:16;;;;;;;8.50;7.77;;;;;;;18.30;100.00;99383.13;5028141;28;20664;-77
2023/07/24 02:28:41;;;;;;;8.60;7.57;;;;;;;18.27;100.00;99371.91;5022274;28;20208;-76
2023/07/24 02:31:07;;;;;;;8.30;7.57;;;;;;;18.27;100.00;99377.13;5023564;28;20270;-77
2023/07/24 02:33:32;;;;;;;9.67;8.77;;;;;;;18.24;100.00;99379.09;5021401;28;20183;-76
2023/07/24 02:35:57;;;;;;;10.10;7.93;;;;;;;18.21;100.00;99379.25;5023161;28;20195;-76
2023/07/24 02:38:22;;;;;;;8.90;8.10;;;;;;;18.20;100.00;99382.78;5023663;28;20844;-76
2023/07/24 02:40:49;;;;;;;7.63;6.93;;;;;;;18.23;100.00;99372.97;5019403;28;20771;-76
2023/07/24 02:43:15;;;;;;;8.60;7.90;;;;;;;18.29;100.00;99366.59;5022655;28;20195;-76
2023/07/24 02:45:40;;;;;;;8.53;7.73;;;;;;;18.35;100.00;99365.41;5020583;28;20188;-77
2023/07/24 02:48:05;;;;;;;10.33;8.00;;;;;;;18.39;100.00;99369.50;5027117;28;20654;-76
2023/07/24 02:50:33;;;;;;;8.63;7.93;;;;;;;18.41;100.00;99357.19;5025687;28;20186;-76
2023/07/24 02:52:58;;;;;;;7.57;6.87;;;;;;;18.43;100.00;99356.19;5019714;28;21064;-77
2023/07/24 02:55:23;;;;;;;8.33;7.63;;;;;;;18.45;100.00;99345.59;5020779;28;20337;-76
2023/07/24 02:57:50;;;;;;;9.57;8.67;;;;;;;18.46;100.00;99335.94;5018618;28;20200;-77
2023/07/24 03:00:16;;;;;;;9.00;8.10;;;;;;;18.43;100.00;99334.34;5020793;28;20208;-76
2023/07/24 03:02:41;;;;;;;8.00;7.30;;;;;;;18.42;100.00;99332.66;5022117;28;20658;-76
2023/07/24 03:05:07;;;;;;;8.00;7.30;;;;;;;18.41;100.00;99336.22;5017071;28;20622;-76
2023/07/24 03:07:32;;;;;;;7.97;7.17;;;;;;;18.42;100.00;99328.28;5024456;28;20227;-76
2023/07/24 03:09:57;;;;;;;7.93;7.23;;;;;;;18.45;100.00;99327.25;5020628;28;20286;-76
2023/07/24 03:12:23;;;;;;;7.60;6.90;;;;;;;18.44;100.00;99325.56;5015215;28;20184;-76
2023/07/24 03:14:48;;;;;;;8.13;7.33;;;;;;;18.45;100.00;99315.94;5019961;28;20294;-76
2023/07/24 03:17:13;;;;;;;8.10;7.37;;;;;;;18.48;100.00;99314.00;5016130;28;20239;-76
2023/07/24 03:19:40;;;;;;;8.17;7.37;;;;;;;18.51;100.00;99320.81;5024989;28;20215;-77
2023/07/24 03:22:06;;;;;;;8.40;7.60;;;;;;;18.54;100.00;99326.72;5020529;28;20689;-77
2023/07/24 03:24:31;;;;;;;7.63;6.87;;;;;;;18.57;100.00;99328.34;5021032;28;20188;-77
2023/07/24 03:26:56;;;;;;;7.23;6.53;;;;;;;18.60;100.00;99328.16;5018535;28;20190;-76
2023/07/24 03:29:21;;;;;;;7.43;6.63;;;;;;;18.62;100.00;99328.06;5017543;28;20715;-75
2023/07/24 03:31:47;;;;;;;7.17;6.47;;;;;;;18.63;100.00;99329.75;5017599;28;20193;-76
2023/07/24 03:34:12;;;;;;;7.70;6.87;;;;;;;18.66;100.00;99340.06;5020642;28;20373;-76
2023/07/24 03:36:41;;;;;;;7.07;6.47;;;;;;;18.69;100.00;99337.25;5021670;28;20691;-77
2023/07/24 03:39:06;;;;;;;8.40;7.70;;;;;;;18.71;100.00;99345.88;5020129;28;20722;-77
2023/07/24 03:41:32;;;;;;;8.43;7.50;;;;;;;18.76;100.00;99340.34;5021744;28;20269;-77
2023/07/24 03:43:57;;;;;;;8.00;7.30;;;;;;;18.78;100.00;99334.09;5020860;28;20198;-76
2023/07/24 03:46:22;;;;;;;7.90;7.20;;;;;;;18.80;100.00;99331.38;5017176;28;20181;-77
2023/07/24 03:48:49;;;;;;;7.93;7.23;;;;;;;18.82;100.00;99345.25;5020131;28;20210;-77
2023/07/24 03:51:15;;;;;;;7.30;6.70;;;;;;;18.84;100.00;99352.09;5022391;28;20190;-77
2023/07/24 03:53:40;;;;;;;8.10;7.40;;;;;;;18.87;100.00;99338.81;5018878;28;20172;-76
2023/07/24 03:56:05;;;;;;;8.27;7.57;;;;;;;18.91;100.00;99333.38;5015723;28;20696;-76
2023/07/24 03:58:31;;;;;;;8.27;7.50;;;;;;;18.92;100.00;99328.03;5022474;28;20246;-76
2023/07/24 04:00:56;;;;;;;8.30;7.60;;;;;;;18.94;100.00;99335.84;5022584;28;20715;-76
2023/07/24 04:03:21;;;;;;;7.93;7.27;;;;;;;18.96;100.00;99336.63;5017644;28;20203;-76
2023/07/24 04:05:47;;;;;;;8.27;7.47;;;;;;;18.95;100.00;99330.53;5014077;28;20265;-77
2023/07/24 04:08:12;;;;;;;8.77;7.97;;;;;;;18.98;100.00;99326.88;5015371;28;21068;-77
2023/07/24 04:10:37;;;;;;;8.50;7.70;;;;;;;18.98;100.00;99319.84;5025072;28;20181;-76
2023/07/24 04:13:03;;;;;;;8.17;7.47;;;;;;;18.98;100.00;99314.59;5019131;28;20322;-76
2023/07/24 04:15:28;;;;;;;8.40;7.60;;;;;;;18.97;100.00;99310.31;5020072;28;20186;-76
2023/07/24 04:17:53;;;;;;;8.47;7.77;;;;;;;18.96;100.00;99311.22;5014348;28;20267;-77
2023/07/24 04:20:19;;;;;;;7.80;7.20;;;;;;;18.96;100.00;99308.59;5021067;28;20214;-77
2023/07/24 04:22:44;;;;;;;7.80;7.10;;;;;;;18.98;100.00;99311.16;5016970;28;20216;-77
2023/07/24 04:25:09;;;;;;;8.00;7.37;;;;;;;18.99;100.00;99307.56;5013427;28;20233;-76
2023/07/24 04:27:34;;;;;;;8.43;7.63;;;;;;;19.00;100.00;99307.50;5015622;28;20273;-76
2023/07/24 04:30:00;;;;;;;7.40;6.70;;;;;;;19.02;100.00;99303.00;5019000;28;20212;-77
2023/07/24 04:32:28;;;;;;;8.37;7.63;;;;;;;19.03;100.00;99302.06;5022477;28;20192;-77
2023/07/24 04:34:54;;;;;;;8.90;8.00;;;;;;;19.04;100.00;99298.53;5017322;28;20192;-77
2023/07/24 04:37:19;;;;;;;7.67;7.07;;;;;;;19.09;100.00;99306.09;5013222;28;20216;-77
2023/07/24 04:39:44;;;;;;;8.20;7.50;;;;;;;19.12;100.00;99303.31;5020335;28;20845;-77
2023/07/24 04:42:10;;;;;;;8.63;7.83;;;;;;;19.15;100.00;99291.78;5016291;28;20185;-76
2023/07/24 04:44:35;;;;;;;7.67;6.97;;;;;;;19.21;100.00;99290.56;5025657;28;20191;-78
2023/07/24 04:47:02;;;;;;;7.47;6.83;;;;;;;19.25;100.00;99292.91;5026200;28;20230;-77
2023/07/24 04:49:30;;;;;;;7.87;7.20;;;;;;;19.30;100.00;99287.34;5028525;28;20213;-77
2023/07/24 04:51:56;;;;;;;7.87;7.17;;;;;;;19.33;100.00;99285.41;5018598;28;20195;-76
2023/07/24 04:54:21;;;;;;;8.20;7.50;;;;;;;19.36;100.00;99283.53;5024301;28;20958;-77
2023/07/24 04:56:47;;;;;;;8.37;7.50;;;;;;;19.34;100.00;99294.13;5012911;28;20198;-77
2023/07/24 04:59:12;;;;;;;8.53;7.83;;;;;;;19.34;100.00;99299.38;5016694;28;20215;-78
2023/07/24 05:01:37;;;;;;;8.37;7.67;;;;;;;19.35;100.00;99303.66;5011533;28;20313;-78
2023/07/24 05:04:03;;;;;;;8.83;8.03;;;;;;;19.38;100.00;99305.25;5019470;28;20754;-77
2023/07/24 05:06:28;;;;;;;8.60;7.90;;;;;;;19.40;100.00;99317.38;5016767;28;20180;-77
2023/07/24 05:08:53;;;;;;;8.27;7.47;;;;;;;19.42;100.00;99306.75;5015475;28;20265;-77
2023/07/24 05:11:19;;;;;;;9.13;8.13;;;;;;;19.44;100.00;99320.63;5020170;28;20275;-77
2023/07/24 05:13:44;;;;;;;9.83;8.93;;;;;;;19.44;100.00;99318.84;5016980;28;20211;-77
2023/07/24 05:16:09;;;;;;;11.10;9.10;;;;;;;19.45;100.00;99310.03;5017947;28;20212;-77
2023/07/24 05:18:35;;;;;;;10.03;9.00;;;;;;;19.46;100.00;99303.84;5021369;28;20584;-76
2023/07/24 05:21:00;;;;;;;9.30;8.40;;;;;;;19.45;100.00;99310.03;5021495;28;20193;-77
2023/07/24 05:23:25;;;;;;;9.20;8.40;;;;;;;19.45;100.00;99307.41;5020966;28;20196;-77
2023/07/24 05:26:02;;;;;;;8.53;7.83;;;;;;;19.45;100.00;99312.66;5017506;28;20213;-77
2023/07/24 05:28:28;;;;;;;9.13;8.23;;;;;;;19.48;100.00;99327.38;5014028;28;20211;-76
2023/07/24 05:30:53;;;;;;;8.93;8.00;;;;;;;19.49;100.00;99340.41;5009696;28;20189;-77
2023/07/24 05:33:18;;;;;;;8.90;8.10;;;;;;;19.52;100.00;99341.97;5019617;28;20236;-76
2023/07/24 05:35:44;;;;;;;8.63;7.90;;;;;;;19.55;100.00;99344.41;5012060;28;20590;-77
2023/07/24 05:38:09;;;;;;;9.67;8.67;;;;;;;19.58;100.00;99353.91;5015253;28;20713;-77
2023/07/24 05:40:35;;;;;;;10.37;9.47;;;;;;;19.60;100.00;99359.88;5015386;28;20201;-77
2023/07/24 05:43:00;;;;;;;10.03;9.13;;;;;;;19.61;100.00;99354.56;5018844;28;20199;-77
2023/07/24 05:45:27;;;;;;;9.50;8.60;;;;;;;19.62;100.00;99358.88;5019602;28;20274;-77
2023/07/24 05:47:52;;;;;;;9.97;8.97;;;;;;;19.63;100.00;99346.56;5017098;28;20651;-76
2023/07/24 05:50:17;;;;;;;9.27;8.47;;;;;;;19.67;100.00;99341.97;5023641;28;20214;-77
2023/07/24 05:52:43;;;;;;;8.90;8.10;;;;;;;19.69;100.00;99343.59;5019833;28;20189;-77
2023/07/24 05:55:08;;;;;;;8.83;8.00;;;;;;;19.73;100.00;99342.47;5023368;28;20196;-77
2023/07/24 05:57:34;;;;;;;8.57;7.87;;;;;;;19.76;100.00;99331.75;5015350;28;20293;-77
2023/07/24 05:59:59;;;;;;;9.53;8.67;;;;;;;19.83;100.00;99331.38;5007110;28;21000;-76
2023/07/24 06:02:24;;;;;;;8.77;7.97;;;;;;;19.87;100.00;99335.53;5014008;28;20274;-76
2023/07/24 06:04:50;;;;;;;8.83;7.93;;;;;;;19.90;100.00;99338.81;5020672;28;20203;-77
2023/07/24 06:07:15;;;;;;;8.83;8.00;;;;;;;19.96;100.00;99342.81;5020778;28;20190;-77
2023/07/24 06:09:41;;;;;;;8.13;7.33;;;;;;;20.01;100.00;99332.88;5019561;28;20756;-77
2023/07/24 06:12:06;;;;;;;9.47;8.53;;;;;;;20.06;100.00;99333.41;5010563;28;20825;-76
2023/07/24 06:14:31;;;;;;;8.00;7.30;;;;;;;20.12;100.00;99326.09;5021637;28;20197;-77
2023/07/24 06:16:57;;;;;;;7.80;7.17;;;;;;;20.16;100.00;99333.66;5018572;28;20220;-77
2023/07/24 06:19:22;;;;;;;8.50;7.70;;;;;;;20.20;100.00;99336.94;5018820;28;20218;-77
2023/07/24 06:21:47;;;;;;;8.40;7.67;;;;;;;20.22;100.00;99335.91;5020016;28;20231;-77
2023/07/24 06:24:13;;;;;;;8.37;7.37;;;;;;;20.24;100.00;99333.16;5021072;28;20278;-77
2023/07/24 06:26:39;;;;;;;7.90;7.20;;;;;;;20.26;100.00;99344.41;5018826;28;20667;-76
2023/07/24 06:29:04;;;;;;;8.80;7.90;;;;;;;20.28;100.00;99339.91;5024290;28;20209;-77
2023/07/24 06:31:29;;;;;;;8.53;7.73;;;;;;;20.31;100.00;99334.47;5017796;28;20180;-77
2023/07/24 06:33:55;;;;;;;9.03;8.23;;;;;;;20.35;100.00;99346.44;5021265;28;20210;-76
2023/07/24 06:36:20;;;;;;;8.53;7.70;;;;;;;20.40;100.00;99344.38;5018296;28;20427;-78
2023/07/24 06:38:47;;;;;;;8.00;7.20;;;;;;;20.49;100.00;99328.97;5013858;28;20740;-76
2023/07/24 06:41:13;;;;;;;8.40;7.60;;;;;;;20.59;100.00;99331.78;5019878;28;20189;-76
2023/07/24 06:43:38;;;;;;;8.73;7.93;;;;;;;20.69;100.00;99332.91;5013958;28;20188;-77
2023/07/24 06:46:04;;;;;;;8.47;7.67;;;;;;;20.77;100.00;99335.03;5016721;28;20843;-77
2023/07/24 06:48:30;;;;;;;8.40;7.60;;;;;;;20.84;100.00;99336.31;5013395;28;20294;-77
2023/07/24 06:50:55;;;;;;;8.33;7.40;;;;;;;20.91;100.00;99326.22;5020448;28;20191;-76
2023/07/24 06:53:20;;;;;;;9.53;8.50;;;;;;;21.01;100.00;99324.66;5015732;28;20213;-77
2023/07/24 06:55:46;;;;;;;9.40;7.70;;;;;;;21.11;100.00;99322.22;5015271;28;20195;-77
2023/07/24 06:58:11;;;;;;;8.77;7.90;;;;;;;21.28;100.00;99323.72;5023421;28;20738;-77
2023/07/24 07:00:36;;;;;;;9.27;8.03;;;;;;;21.38;100.00;99324.75;5020203;28;20188;-77
2023/07/24 07:03:02;;;;;;;10.60;8.90;;;;;;;21.41;100.00;99342.97;5024163;28;21080;-77
2023/07/24 07:05:27;;;;;;;9.57;8.67;;;;;;;21.35;100.00;99374.13;5013362;28;20192;-76
2023/07/24 07:07:52;;;;;;;11.20;9.20;;;;;;;21.21;100.00;99365.38;5021917;28;20242;-77
2023/07/24 07:10:18;;;;;;;12.00;9.57;;;;;;;21.07;100.00;99350.53;5026165;28;20703;-77
2023/07/24 07:12:43;;;;;;;12.73;9.50;;;;;;;20.99;100.00;99342.34;5021352;28;20191;-78
2023/07/24 07:15:09;;;;;;;9.37;8.47;;;;;;;20.92;100.00;99348.94;5028819;28;20198;-77
2023/07/24 07:17:34;;;;;;;10.13;9.07;;;;;;;20.88;100.00;99355.34;5023331;28;20547;-78
2023/07/24 07:19:59;;;;;;;8.17;7.33;;;;;;;20.91;100.00;99363.03;5031861;28;20207;-78
2023/07/24 07:22:25;;;;;;;10.47;8.67;;;;;;;20.95;100.00;99367.97;5029787;28;20187;-78
2023/07/24 07:24:50;;;;;;;9.80;8.80;;;;;;;21.04;100.00;99363.06;5021933;28;20193;-78
2023/07/24 07:27:17;;;;;;;11.30;9.10;;;;;;;21.11;100.00;99374.81;5026162;28;20232;-79
2023/07/24 07:29:43;;;;;;;10.67;8.93;;;;;;;21.16;100.00;99378.84;5015809;28;20207;-77
2023/07/24 07:32:08;;;;;;;9.70;8.70;;;;;;;21.19;100.00;99377.81;5016946;28;20755;-79
2023/07/24 07:34:35;;;;;;;10.60;9.43;;;;;;;21.21;100.00;99378.53;5024031;28;20267;-77
2023/07/24 07:37:01;;;;;;;9.47;8.47;;;;;;;21.22;100.00;99379.38;5020780;28;21082;-78
2023/07/24 07:39:26;;;;;;;10.10;8.37;;;;;;;21.23;100.00;99389.81;5017017;28;20211;-78
2023/07/24 07:41:52;;;;;;;10.10;8.40;;;;;;;21.25;100.00;99393.16;5017570;28;20183;-77
2023/07/24 07:44:17;;;;;;;9.43;8.43;;;;;;;21.27;100.00;99393.06;5018681;28;20188;-77
2023/07/24 07:46:43;;;;;;;9.17;8.30;;;;;;;21.29;100.00;99399.91;5025405;28;20241;-77
2023/07/24 07:49:08;;;;;;;10.17;9.17;;;;;;;21.31;100.00;99394.56;5016033;28;20231;-77
2023/07/24 07:51:33;;;;;;;9.80;8.90;;;;;;;21.33;100.00;99371.56;5029699;28;20183;-78
2023/07/24 07:53:59;;;;;;;9.43;8.47;;;;;;;21.35;100.00;99376.75;5019721;28;20199;-77
2023/07/24 07:56:24;;;;;;;9.63;8.63;;;;;;;21.37;100.00;99373.06;5025287;28;20299;-78
2023/07/24 07:58:49;;;;;;;9.97;8.97;;;;;;;21.40;100.00;99377.28;5030768;28;20214;-78
2023/07/24 08:01:15;;;;;;;9.47;8.47;;;;;;;21.46;100.00;99372.44;5030320;28;20769;-78
2023/07/24 08:03:40;;;;;;;10.03;9.13;;;;;;;21.52;100.00;99367.69;5018192;28;20184;-78
2023/07/24 08:06:06;;;;;;;9.27;8.27;;;;;;;21.58;100.00;99357.56;5025524;28;20310;-78
2023/07/24 08:08:32;;;;;;;10.87;9.07;;;;;;;21.71;100.00;99357.59;5015541;28;20285;-78
2023/07/24 08:10:57;;;;;;;9.00;8.10;;;;;;;21.82;100.00;99345.44;5018829;28;20750;-78
2023/07/24 08:13:22;;;;;;;8.53;7.83;;;;;;;21.98;100.00;99342.56;5023068;28;20920;-78
2023/07/24 08:15:49;;;;;;;8.30;7.50;;;;;;;22.12;100.00;99333.66;5019831;28;20951;-77
2023/07/24 08:18:14;;;;;;;9.43;8.53;;;;;;;22.26;100.00;99325.59;5019891;28;20208;-78
2023/07/24 08:20:40;;;;;;;9.17;8.13;;;;;;;22.42;100.00;99324.47;5027116;28;20191;-77
2023/07/24 08:23:05;;;;;;;8.93;8.03;;;;;;;22.57;100.00;99306.69;5028192;28;20343;-78
2023/07/24 08:25:31;;;;;;;8.70;7.80;;;;;;;22.71;100.00;99306.50;5019578;28;20204;-77
2023/07/24 08:27:56;;;;;;;8.67;7.87;;;;;;;22.84;100.00;99309.88;5010559;28;20184;-78
2023/07/24 08:30:21;;;;;;;8.57;7.67;;;;;;;23.02;100.00;99305.94;5023232;28;20570;-78
2023/07/24 08:32:50;;;;;;;8.43;7.47;;;;;;;23.24;100.00;99313.06;5018486;28;20234;-78
2023/07/24 08:35:15;;;;;;;8.10;7.30;;;;;;;23.48;100.00;99322.69;5027890;28;20184;-76
2023/07/24 08:37:44;;;;;;;8.20;7.43;;;;;;;23.65;100.00;99321.34;5024024;28;20216;-76
2023/07/24 08:40:10;;;;;;;7.87;7.17;;;;;;;23.80;100.00;99329.88;5023375;28;20256;-78
2023/07/24 08:42:39;;;;;;;8.10;7.13;;;;;;;24.01;100.00;99322.88;5015438;28;20180;-78
2023/07/24 08:45:08;;;;;;;8.90;7.90;;;;;;;24.09;100.00;99314.31;5027884;28;20730;-78
2023/07/24 08:47:35;;;;;;;8.03;7.30;;;;;;;24.35;100.00;99316.66;5025909;28;20250;-77
2023/07/24 08:50:01;;;;;;;8.07;7.10;;;;;;;24.61;100.00;99314.47;5019572;28;20214;-79
2023/07/24 08:52:27;;;;;;;8.50;7.33;;;;;;;24.79;100.00;99308.66;5022063;28;20571;-78
2023/07/24 08:54:54;;;;;;;7.87;7.07;;;;;;;24.89;100.00;99316.66;5021898;28;20180;-78
2023/07/24 08:57:20;;;;;;;8.07;7.27;;;;;;;25.06;100.00;99317.84;5025081;28;20218;-77
2023/07/24 08:59:45;;;;;;;8.37;6.70;;;;;;;25.30;100.00;99316.72;5020505;28;20203;-78
2023/07/24 09:02:10;;;;;;;8.37;6.67;;;;;;;25.55;100.00;99321.59;5029671;28;20251;-78
2023/07/24 09:04:36;;;;;;;7.73;7.07;;;;;;;25.81;100.00;99323.75;5014900;28;20254;-77
2023/07/24 09:07:02;;;;;;;7.43;6.73;;;;;;;26.05;100.00;99311.09;5022465;28;20233;-77
2023/07/24 09:09:31;;;;;;;10.07;9.17;;;;;;;26.20;100.00;99328.31;5014551;28;20227;-78
2023/07/24 09:11:58;;;;;;;8.60;7.70;;;;;;;26.28;100.00;99331.13;5020911;28;20198;-77
2023/07/24 09:14:25;;;;;;;8.47;7.50;;;;;;;26.25;99.85;99334.03;5024522;28;20869;-77
2023/07/24 09:17:04;;;;;;;7.97;7.27;;;;;;;26.21;99.34;99339.78;5017097;28;20203;-77
2023/07/24 09:19:30;;;;;;;7.93;7.17;;;;;;;26.16;100.00;99342.84;5014666;28;20214;-78
2023/07/24 09:21:55;;;;;;;7.30;6.67;;;;;;;26.19;99.29;99339.06;5020779;28;20183;-77
2023/07/24 09:24:20;;;;;;;8.17;7.37;;;;;;;26.16;99.83;99333.06;5028157;28;20205;-77
2023/07/24 09:26:53;;;;;;;8.53;7.23;;;;;;;26.17;98.63;99332.09;5019759;28;20188;-78
2023/07/24 09:29:19;;;;;;;7.73;6.93;;;;;;;25.86;99.53;99342.75;5023881;28;20322;-77
2023/07/24 09:31:45;;;;;;;7.33;6.60;;;;;;;25.72;99.77;99343.94;5020443;28;20255;-78
2023/07/24 09:34:18;;;;;;;6.97;6.27;;;;;;;25.59;99.24;99330.09;5026027;28;20196;-77
2023/07/24 09:36:44;;;;;;;7.93;7.23;;;;;;;25.23;99.98;99333.13;5018362;28;20295;-77
2023/07/24 09:39:13;;;;;;;7.17;6.47;;;;;;;25.14;100.00;99339.22;5017146;28;20614;-77
2023/07/24 09:41:39;;;;;;;7.00;6.40;;;;;;;24.98;100.00;99344.16;5024647;28;20202;-78
2023/07/24 09:44:05;;;;;;;7.33;6.63;;;;;;;24.78;100.00;99338.72;5025615;28;20187;-77
2023/07/24 09:46:32;;;;;;;7.37;6.67;;;;;;;24.60;100.00;99346.34;5021309;28;20184;-77
2023/07/24 09:48:58;;;;;;;7.37;6.67;;;;;;;24.41;100.00;99347.88;5024601;28;20315;-77
2023/07/24 09:51:23;;;;;;;6.97;6.37;;;;;;;24.22;100.00;99331.81;5017850;28;20222;-77
2023/07/24 09:54:29;;;;;;;7.40;6.67;;;;;;;24.01;100.00;99333.44;5018697;28;20622;-77
2023/07/24 09:56:55;;;;;;;6.93;6.33;;;;;;;23.79;100.00;99339.59;5019144;28;20314;-77
2023/07/24 09:59:22;;;;;;;7.93;7.10;;;;;;;23.51;100.00;99336.50;5026029;28;20292;-78
2023/07/24 10:01:48;;;;;;;8.43;7.30;;;;;;;23.29;100.00;99327.59;5020813;28;20615;-79
2023/07/24 10:04:14;;;;;;;8.20;7.40;;;;;;;23.05;100.00;99332.97;5012316;28;20298;-78
2023/07/24 10:06:42;;;;;;;8.43;7.53;;;;;;;22.91;100.00;99339.28;5024190;28;20198;-77
2023/07/24 10:09:08;;;;;;;8.03;7.20;;;;;;;22.76;100.00;99341.28;5021023;28;20225;-76
2023/07/24 10:11:34;;;;;;;8.27;7.47;;;;;;;22.71;100.00;99347.84;5024219;28;21066;-77
2023/07/24 10:14:00;;;;;;;8.07;7.20;;;;;;;22.57;100.00;99346.25;5019247;28;20187;-78
2023/07/24 10:16:26;;;;;;;9.20;7.57;;;;;;;22.45;100.00;99342.72;5020425;28;20246;-78
2023/07/24 10:18:51;;;;;;;8.00;7.20;;;;;;;22.37;100.00;99343.25;5016821;28;20234;-78
2023/07/24 10:21:16;;;;;;;9.00;7.93;;;;;;;22.27;100.00;99339.63;5016382;28;20290;-78
2023/07/24 10:23:48;;;;;;;8.30;7.47;;;;;;;22.15;100.00;99334.28;5022125;28;20199;-78
2023/07/24 10:26:15;;;;;;;8.53;7.73;;;;;;;21.99;100.00;99336.34;5023730;28;20184;-78
2023/07/24 10:28:41;;;;;;;8.30;7.50;;;;;;;21.86;100.00;99342.47;5017324;28;20792;-77
2023/07/24 10:31:21;;;;;;;9.07;7.63;;;;;;;21.74;100.00;99331.03;5027917;28;20287;-78
2023/07/24 10:33:46;;;;;;;7.87;7.07;;;;;;;21.71;100.00;99330.41;5023557;28;20192;-78
2023/07/24 10:36:13;;;;;;;8.77;7.87;;;;;;;21.64;100.00;99318.63;5017527;28;20191;-77
2023/07/24 10:38:43;;;;;;;8.40;7.50;;;;;;;21.58;100.00;99311.97;5022599;28;20227;-78
2023/07/24 10:41:10;;;;;;;7.93;7.20;;;;;;;21.54;100.00;99305.25;5023593;28;20199;-78
2023/07/24 10:43:59;;;;;;;8.20;7.50;;;;;;;21.50;100.00;99302.00;5027167;28;20188;-78
2023/07/24 10:46:39;;;;;;;7.77;7.07;;;;;;;21.44;100.00;99298.00;5029427;28;20190;-78
2023/07/24 10:49:05;;;;;;;8.43;7.63;;;;;;;21.50;100.00;99298.50;5023987;28;20207;-77
2023/07/24 10:51:37;;;;;;;8.70;7.80;;;;;;;21.52;100.00;99301.88;5031243;28;20302;-78
2023/07/24 10:54:03;;;;;;;8.93;7.93;;;;;;;21.57;100.00;99289.25;5022494;28;20176;-77
2023/07/24 10:56:29;;;;;;;8.70;7.90;;;;;;;21.60;100.00;99268.81;5023205;28;20574;-79
2023/07/24 10:58:54;;;;;;;7.87;7.10;;;;;;;21.66;100.00;99257.00;5026156;28;20211;-78
2023/07/24 11:01:20;;;;;;;7.97;7.27;;;;;;;21.73;100.00;99246.88;5028436;28;20183;-78
2023/07/24 11:03:46;;;;;;;7.83;7.13;;;;;;;21.80;100.00;99240.22;5019646;28;20184;-78
2023/07/24 11:06:16;;;;;;;7.93;7.23;;;;;;;21.88;100.00;99224.69;5023972;28;20187;-77
2023/07/24 11:08:42;;;;;;;8.40;7.53;;;;;;;21.93;100.00;99219.09;5028197;28;20211;-77
2023/07/24 11:11:08;;;;;;;8.83;7.37;;;;;;;22.02;100.00;99225.47;5018320;28;20499;-77
2023/07/24 11:13:34;;;;;;;8.63;7.13;;;;;;;22.02;100.00;99228.09;5019674;28;20200;-78
2023/07/24 11:16:05;;;;;;;8.93;8.03;;;;;;;22.11;100.00;99237.97;5029696;28;20176;-78
2023/07/24 11:18:30;;;;;;;8.83;7.93;;;;;;;22.22;100.00;99242.47;5023435;28;20215;-77
2023/07/24 11:20:56;;;;;;;8.30;7.37;;;;;;;22.42;100.00;99230.44;5024096;28;20273;-79